sensor_id;sensor_type;location;lat;lon;timestamp;temperature;humidity
22321;DHT22;11328;53.928;18.522;2023-02-28T00:01:26;-3.20;99.90
22321;DHT22;11328;53.928;18.522;2023-02-28T00:03:54;-3.20;99.90
22321;DHT22;11328;53.928;18.522;2023-02-28T00:06:21;-3.20;99.90
22321;DHT22;11328;53.928;18.522;2023-02-28T00:08:48;-3.20;99.90
22321;DHT22;11328;53.928;18.522;2023-02-28T00:11:16;-3.20;99.90
22321;DHT22;11328;53.928;18.522;2023-02-28T00:13:45;-3.20;99.90
22321;DHT22;11328;53.928;18.522;2023-02-28T00:16:19;-3.20;99.90
22321;DHT22;11328;53.928;18.522;2023-02-28T00:18:48;-3.30;99.90
22321;DHT22;11328;53.928;18.522;2023-02-28T00:21:16;-3.40;99.90
22321;DHT22;11328;53.928;18.522;2023-02-28T00:23:44;-3.50;99.90
22321;DHT22;11328;53.928;18.522;2023-02-28T00:26:11;-3.40;99.90
22321;DHT22;11328;53.928;18.522;2023-02-28T00:28:38;-3.50;99.90
22321;DHT22;11328;53.928;18.522;2023-02-28T00:31:05;-3.60;99.90
22321;DHT22;11328;53.928;18.522;2023-02-28T00:33:32;-3.60;99.90
22321;DHT22;11328;53.928;18.522;2023-02-28T00:36:07;-3.60;99.90
22321;DHT22;11328;53.928;18.522;2023-02-28T00:38:37;-3.60;99.90
22321;DHT22;11328;53.928;18.522;2023-02-28T00:41:06;-3.70;99.90
22321;DHT22;11328;53.928;18.522;2023-02-28T00:43:35;-3.70;99.90
22321;DHT22;11328;53.928;18.522;2023-02-28T00:46:04;-3.70;99.90
22321;DHT22;11328;53.928;18.522;2023-02-28T00:48:32;-3.70;99.90
22321;DHT22;11328;53.928;18.522;2023-02-28T00:50:59;-3.70;99.90
22321;DHT22;11328;53.928;18.522;2023-02-28T00:53:27;-3.70;99.90
22321;DHT22;11328;53.928;18.522;2023-02-28T00:55:54;-3.60;99.90
22321;DHT22;11328;53.928;18.522;2023-02-28T00:58:21;-3.60;99.90
22321;DHT22;11328;53.928;18.522;2023-02-28T01:00:48;-3.70;99.90
22321;DHT22;11328;53.928;18.522;2023-02-28T01:03:19;-3.60;99.90
22321;DHT22;11328;53.928;18.522;2023-02-28T01:05:47;-3.60;99.90
22321;DHT22;11328;53.928;18.522;2023-02-28T01:08:15;-3.50;99.90
22321;DHT22;11328;53.928;18.522;2023-02-28T01:10:42;-3.60;99.90
22321;DHT22;11328;53.928;18.522;2023-02-28T01:13:09;-3.50;99.90
22321;DHT22;11328;53.928;18.522;2023-02-28T01:15:45;-3.60;99.90
22321;DHT22;11328;53.928;18.522;2023-02-28T01:18:17;-3.60;99.90
22321;DHT22;11328;53.928;18.522;2023-02-28T01:20:44;-3.60;99.90
22321;DHT22;11328;53.928;18.522;2023-02-28T01:23:12;-3.70;99.90
22321;DHT22;11328;53.928;18.522;2023-02-28T01:25:39;-3.70;99.90
22321;DHT22;11328;53.928;18.522;2023-02-28T01:28:06;-3.60;99.90
22321;DHT22;11328;53.928;18.522;2023-02-28T01:30:33;-3.70;99.90
22321;DHT22;11328;53.928;18.522;2023-02-28T01:33:00;-3.70;99.90
22321;DHT22;11328;53.928;18.522;2023-02-28T01:35:27;-3.70;99.90
22321;DHT22;11328;53.928;18.522;2023-02-28T01:37:54;-3.80;99.90
22321;DHT22;11328;53.928;18.522;2023-02-28T01:40:24;-3.80;99.90
22321;DHT22;11328;53.928;18.522;2023-02-28T01:42:51;-3.80;99.90
22321;DHT22;11328;53.928;18.522;2023-02-28T01:45:30;-3.90;99.90
22321;DHT22;11328;53.928;18.522;2023-02-28T01:48:02;-3.80;99.90
22321;DHT22;11328;53.928;18.522;2023-02-28T01:50:35;-3.80;99.90
22321;DHT22;11328;53.928;18.522;2023-02-28T01:53:08;-3.80;99.90
22321;DHT22;11328;53.928;18.522;2023-02-28T01:55:42;-3.80;99.90
22321;DHT22;11328;53.928;18.522;2023-02-28T01:58:13;-3.80;99.90
22321;DHT22;11328;53.928;18.522;2023-02-28T02:00:41;-3.80;99.90
22321;DHT22;11328;53.928;18.522;2023-02-28T02:03:12;-3.90;99.90
22321;DHT22;11328;53.928;18.522;2023-02-28T02:05:42;-3.90;99.90
22321;DHT22;11328;53.928;18.522;2023-02-28T02:08:17;-4.00;99.90
22321;DHT22;11328;53.928;18.522;2023-02-28T02:10:56;-4.00;99.90
22321;DHT22;11328;53.928;18.522;2023-02-28T02:13:57;-4.00;99.90
22321;DHT22;11328;53.928;18.522;2023-02-28T02:20:24;-4.00;99.90
22321;DHT22;11328;53.928;18.522;2023-02-28T02:32:20;-4.10;99.90
22321;DHT22;11328;53.928;18.522;2023-02-28T02:37:39;-4.30;99.90
22321;DHT22;11328;53.928;18.522;2023-02-28T02:40:17;-4.30;99.90
22321;DHT22;11328;53.928;18.522;2023-02-28T02:43:00;-4.30;99.90
22321;DHT22;11328;53.928;18.522;2023-02-28T02:45:56;-4.30;99.90
22321;DHT22;11328;53.928;18.522;2023-02-28T02:48:31;-4.40;99.90
22321;DHT22;11328;53.928;18.522;2023-02-28T02:51:05;-4.40;99.90
22321;DHT22;11328;53.928;18.522;2023-02-28T02:53:45;-4.40;99.90
22321;DHT22;11328;53.928;18.522;2023-02-28T02:56:21;-4.50;99.90
22321;DHT22;11328;53.928;18.522;2023-02-28T02:58:55;-4.50;99.90
22321;DHT22;11328;53.928;18.522;2023-02-28T03:01:27;-4.50;99.90
22321;DHT22;11328;53.928;18.522;2023-02-28T03:03:59;-4.60;99.90
22321;DHT22;11328;53.928;18.522;2023-02-28T03:06:30;-4.60;99.90
22321;DHT22;11328;53.928;18.522;2023-02-28T03:08:57;-4.60;99.90
22321;DHT22;11328;53.928;18.522;2023-02-28T03:11:24;-4.60;99.90
22321;DHT22;11328;53.928;18.522;2023-02-28T03:14:04;-4.60;99.90
22321;DHT22;11328;53.928;18.522;2023-02-28T03:16:55;-4.60;99.90
22321;DHT22;11328;53.928;18.522;2023-02-28T03:23:14;-4.60;99.90
22321;DHT22;11328;53.928;18.522;2023-02-28T03:26:07;-4.70;99.90
22321;DHT22;11328;53.928;18.522;2023-02-28T03:29:03;-4.70;99.90
22321;DHT22;11328;53.928;18.522;2023-02-28T03:31:39;-4.60;99.90
22321;DHT22;11328;53.928;18.522;2023-02-28T03:34:17;-4.70;99.90
22321;DHT22;11328;53.928;18.522;2023-02-28T03:36:53;-4.60;99.90
22321;DHT22;11328;53.928;18.522;2023-02-28T03:39:37;-4.60;99.90
22321;DHT22;11328;53.928;18.522;2023-02-28T03:42:12;-4.60;99.90
22321;DHT22;11328;53.928;18.522;2023-02-28T03:44:48;-4.50;99.90
22321;DHT22;11328;53.928;18.522;2023-02-28T03:47:25;-4.40;99.90
22321;DHT22;11328;53.928;18.522;2023-02-28T03:49:58;-4.40;99.90
22321;DHT22;11328;53.928;18.522;2023-02-28T03:52:38;-4.30;99.90
22321;DHT22;11328;53.928;18.522;2023-02-28T03:55:13;-4.30;99.90
22321;DHT22;11328;53.928;18.522;2023-02-28T03:58:04;-4.30;99.90
22321;DHT22;11328;53.928;18.522;2023-02-28T04:00:40;-4.30;99.90
22321;DHT22;11328;53.928;18.522;2023-02-28T04:03:13;-4.20;99.90
22321;DHT22;11328;53.928;18.522;2023-02-28T04:06:07;-4.20;99.90
22321;DHT22;11328;53.928;18.522;2023-02-28T04:08:42;-4.20;99.90
22321;DHT22;11328;53.928;18.522;2023-02-28T04:11:25;-4.20;99.90
22321;DHT22;11328;53.928;18.522;2023-02-28T04:14:02;-4.20;99.90
22321;DHT22;11328;53.928;18.522;2023-02-28T04:16:34;-4.30;99.90
22321;DHT22;11328;53.928;18.522;2023-02-28T04:19:04;-4.20;99.90
22321;DHT22;11328;53.928;18.522;2023-02-28T04:21:37;-4.20;99.90
22321;DHT22;11328;53.928;18.522;2023-02-28T04:24:08;-4.20;99.90
22321;DHT22;11328;53.928;18.522;2023-02-28T04:26:42;-4.20;99.90
22321;DHT22;11328;53.928;18.522;2023-02-28T04:29:22;-4.20;99.90
22321;DHT22;11328;53.928;18.522;2023-02-28T04:31:51;-4.30;99.90
22321;DHT22;11328;53.928;18.522;2023-02-28T04:34:21;-4.30;99.90
22321;DHT22;11328;53.928;18.522;2023-02-28T04:36:48;-4.30;99.90
22321;DHT22;11328;53.928;18.522;2023-02-28T04:39:38;-4.30;99.90
22321;DHT22;11328;53.928;18.522;2023-02-28T04:42:06;-4.30;99.90
22321;DHT22;11328;53.928;18.522;2023-02-28T04:44:33;-4.30;99.90
22321;DHT22;11328;53.928;18.522;2023-02-28T04:47:00;-4.30;99.90
22321;DHT22;11328;53.928;18.522;2023-02-28T04:49:27;-4.30;99.90
22321;DHT22;11328;53.928;18.522;2023-02-28T04:51:56;-4.30;99.90
22321;DHT22;11328;53.928;18.522;2023-02-28T04:54:23;-4.40;99.90
22321;DHT22;11328;53.928;18.522;2023-02-28T04:56:50;-4.50;99.90
22321;DHT22;11328;53.928;18.522;2023-02-28T04:59:17;-4.50;99.90
22321;DHT22;11328;53.928;18.522;2023-02-28T05:01:48;-4.50;99.90
22321;DHT22;11328;53.928;18.522;2023-02-28T05:04:16;-4.50;99.90
22321;DHT22;11328;53.928;18.522;2023-02-28T05:06:43;-4.50;99.90
22321;DHT22;11328;53.928;18.522;2023-02-28T05:09:10;-4.50;99.90
22321;DHT22;11328;53.928;18.522;2023-02-28T05:11:41;-4.50;99.90
22321;DHT22;11328;53.928;18.522;2023-02-28T05:14:13;-4.50;99.90
22321;DHT22;11328;53.928;18.522;2023-02-28T05:16:41;-4.50;99.90
22321;DHT22;11328;53.928;18.522;2023-02-28T05:19:08;-4.60;99.90
22321;DHT22;11328;53.928;18.522;2023-02-28T05:21:37;-4.60;99.90
22321;DHT22;11328;53.928;18.522;2023-02-28T05:24:09;-4.70;99.90
22321;DHT22;11328;53.928;18.522;2023-02-28T05:26:40;-4.70;99.90
22321;DHT22;11328;53.928;18.522;2023-02-28T05:29:09;-4.60;99.90
22321;DHT22;11328;53.928;18.522;2023-02-28T05:31:36;-4.60;99.90
22321;DHT22;11328;53.928;18.522;2023-02-28T05:34:04;-4.70;99.90
22321;DHT22;11328;53.928;18.522;2023-02-28T05:36:31;-4.70;99.90
22321;DHT22;11328;53.928;18.522;2023-02-28T05:38:59;-4.80;99.90
22321;DHT22;11328;53.928;18.522;2023-02-28T05:41:26;-4.80;99.90
22321;DHT22;11328;53.928;18.522;2023-02-28T05:43:54;-4.80;99.90
22321;DHT22;11328;53.928;18.522;2023-02-28T05:46:20;-4.80;99.90
22321;DHT22;11328;53.928;18.522;2023-02-28T05:48:48;-4.80;99.90
22321;DHT22;11328;53.928;18.522;2023-02-28T05:51:16;-4.70;99.90
22321;DHT22;11328;53.928;18.522;2023-02-28T05:53:43;-4.70;99.90
22321;DHT22;11328;53.928;18.522;2023-02-28T05:56:10;-4.70;99.90
22321;DHT22;11328;53.928;18.522;2023-02-28T05:58:37;-4.70;99.90
22321;DHT22;11328;53.928;18.522;2023-02-28T06:01:34;-4.70;99.90
22321;DHT22;11328;53.928;18.522;2023-02-28T06:04:09;-4.60;99.90
22321;DHT22;11328;53.928;18.522;2023-02-28T06:06:54;-4.50;99.90
22321;DHT22;11328;53.928;18.522;2023-02-28T06:09:24;-4.60;99.90
22321;DHT22;11328;53.928;18.522;2023-02-28T06:11:51;-4.60;99.90
22321;DHT22;11328;53.928;18.522;2023-02-28T06:14:19;-4.50;99.90
22321;DHT22;11328;53.928;18.522;2023-02-28T06:16:47;-4.40;99.90
22321;DHT22;11328;53.928;18.522;2023-02-28T06:19:15;-4.40;99.90
22321;DHT22;11328;53.928;18.522;2023-02-28T06:21:42;-4.30;99.90
22321;DHT22;11328;53.928;18.522;2023-02-28T06:24:10;-4.20;99.90
22321;DHT22;11328;53.928;18.522;2023-02-28T06:26:37;-4.10;99.90
22321;DHT22;11328;53.928;18.522;2023-02-28T06:29:04;-4.00;99.90
22321;DHT22;11328;53.928;18.522;2023-02-28T06:31:31;-4.00;99.90
22321;DHT22;11328;53.928;18.522;2023-02-28T06:33:58;-3.90;99.90
22321;DHT22;11328;53.928;18.522;2023-02-28T06:36:25;-3.70;99.90
22321;DHT22;11328;53.928;18.522;2023-02-28T06:38:52;-3.60;99.90
22321;DHT22;11328;53.928;18.522;2023-02-28T06:41:25;-3.50;99.90
22321;DHT22;11328;53.928;18.522;2023-02-28T06:43:54;-3.30;99.90
22321;DHT22;11328;53.928;18.522;2023-02-28T06:46:21;-3.20;99.90
22321;DHT22;11328;53.928;18.522;2023-02-28T06:48:49;-3.00;99.90
22321;DHT22;11328;53.928;18.522;2023-02-28T06:51:19;-2.80;99.90
22321;DHT22;11328;53.928;18.522;2023-02-28T06:53:48;-2.60;99.90
22321;DHT22;11328;53.928;18.522;2023-02-28T06:56:16;-2.50;99.90
22321;DHT22;11328;53.928;18.522;2023-02-28T06:58:50;-2.30;99.90
22321;DHT22;11328;53.928;18.522;2023-02-28T07:01:19;-2.10;99.90
22321;DHT22;11328;53.928;18.522;2023-02-28T07:03:46;-2.00;99.90
22321;DHT22;11328;53.928;18.522;2023-02-28T07:06:19;-1.80;99.90
22321;DHT22;11328;53.928;18.522;2023-02-28T07:08:50;-1.70;99.90
22321;DHT22;11328;53.928;18.522;2023-02-28T07:11:20;-1.40;99.90
22321;DHT22;11328;53.928;18.522;2023-02-28T07:13:50;-1.20;99.90
22321;DHT22;11328;53.928;18.522;2023-02-28T07:16:17;-0.90;99.90
22321;DHT22;11328;53.928;18.522;2023-02-28T07:18:48;-0.60;99.90
22321;DHT22;11328;53.928;18.522;2023-02-28T07:21:15;-0.40;99.90
22321;DHT22;11328;53.928;18.522;2023-02-28T07:23:42;-0.20;99.90
22321;DHT22;11328;53.928;18.522;2023-02-28T07:26:14;-0.10;99.90
22321;DHT22;11328;53.928;18.522;2023-02-28T07:28:45;0.00;99.90
22321;DHT22;11328;53.928;18.522;2023-02-28T07:31:14;0.10;99.90
22321;DHT22;11328;53.928;18.522;2023-02-28T07:33:42;0.20;99.90
22321;DHT22;11328;53.928;18.522;2023-02-28T07:36:15;0.30;99.90
22321;DHT22;11328;53.928;18.522;2023-02-28T07:38:46;0.50;99.90
22321;DHT22;11328;53.928;18.522;2023-02-28T07:41:19;0.70;99.90
22321;DHT22;11328;53.928;18.522;2023-02-28T07:43:47;0.90;99.90
22321;DHT22;11328;53.928;18.522;2023-02-28T07:46:15;1.00;99.90
22321;DHT22;11328;53.928;18.522;2023-02-28T07:48:44;1.10;99.90
22321;DHT22;11328;53.928;18.522;2023-02-28T07:51:11;1.20;99.90
22321;DHT22;11328;53.928;18.522;2023-02-28T07:53:38;1.30;99.90
22321;DHT22;11328;53.928;18.522;2023-02-28T07:56:06;1.40;99.90
22321;DHT22;11328;53.928;18.522;2023-02-28T07:58:33;1.40;99.90
22321;DHT22;11328;53.928;18.522;2023-02-28T08:01:08;1.50;99.90
22321;DHT22;11328;53.928;18.522;2023-02-28T08:03:37;1.70;99.90
22321;DHT22;11328;53.928;18.522;2023-02-28T08:06:06;1.70;99.90
22321;DHT22;11328;53.928;18.522;2023-02-28T08:08:34;1.70;99.90
22321;DHT22;11328;53.928;18.522;2023-02-28T08:11:02;1.60;99.90
22321;DHT22;11328;53.928;18.522;2023-02-28T08:13:30;1.90;99.90
22321;DHT22;11328;53.928;18.522;2023-02-28T08:15:57;2.10;99.90
22321;DHT22;11328;53.928;18.522;2023-02-28T08:18:24;2.10;99.90
22321;DHT22;11328;53.928;18.522;2023-02-28T08:20:51;2.20;99.90
22321;DHT22;11328;53.928;18.522;2023-02-28T08:23:18;2.10;99.90
22321;DHT22;11328;53.928;18.522;2023-02-28T08:25:53;2.20;99.90
22321;DHT22;11328;53.928;18.522;2023-02-28T08:28:21;2.20;99.90
22321;DHT22;11328;53.928;18.522;2023-02-28T08:30:52;2.20;99.90
22321;DHT22;11328;53.928;18.522;2023-02-28T08:33:20;2.30;99.90
22321;DHT22;11328;53.928;18.522;2023-02-28T08:35:47;2.60;99.90
22321;DHT22;11328;53.928;18.522;2023-02-28T08:38:14;2.60;99.90
22321;DHT22;11328;53.928;18.522;2023-02-28T08:40:41;2.80;99.90
22321;DHT22;11328;53.928;18.522;2023-02-28T08:43:09;3.00;99.90
22321;DHT22;11328;53.928;18.522;2023-02-28T08:45:36;3.00;99.90
22321;DHT22;11328;53.928;18.522;2023-02-28T08:48:03;3.00;99.90
22321;DHT22;11328;53.928;18.522;2023-02-28T09:05:05;3.00;99.90
22321;DHT22;11328;53.928;18.522;2023-02-28T09:07:32;4.00;99.90
22321;DHT22;11328;53.928;18.522;2023-02-28T09:10:00;4.00;99.90
22321;DHT22;11328;53.928;18.522;2023-02-28T09:12:27;3.90;99.90
22321;DHT22;11328;53.928;18.522;2023-02-28T09:14:59;4.10;99.90
22321;DHT22;11328;53.928;18.522;2023-02-28T09:17:27;4.00;99.90
22321;DHT22;11328;53.928;18.522;2023-02-28T09:19:56;3.90;99.90
22321;DHT22;11328;53.928;18.522;2023-02-28T09:22:24;3.70;99.90
22321;DHT22;11328;53.928;18.522;2023-02-28T09:24:52;3.50;99.90
22321;DHT22;11328;53.928;18.522;2023-02-28T09:27:19;3.40;99.90
22321;DHT22;11328;53.928;18.522;2023-02-28T09:29:47;3.40;99.90
22321;DHT22;11328;53.928;18.522;2023-02-28T09:32:14;3.40;99.90
22321;DHT22;11328;53.928;18.522;2023-02-28T09:34:41;3.30;99.90
22321;DHT22;11328;53.928;18.522;2023-02-28T09:37:09;3.50;99.90
22321;DHT22;11328;53.928;18.522;2023-02-28T09:39:36;3.70;99.90
22321;DHT22;11328;53.928;18.522;2023-02-28T09:42:04;3.50;99.90
22321;DHT22;11328;53.928;18.522;2023-02-28T09:44:42;3.60;99.90
22321;DHT22;11328;53.928;18.522;2023-02-28T09:47:34;3.80;99.90
22321;DHT22;11328;53.928;18.522;2023-02-28T09:53:02;4.10;99.90
22321;DHT22;11328;53.928;18.522;2023-02-28T09:55:42;4.00;99.90
22321;DHT22;11328;53.928;18.522;2023-02-28T10:01:22;3.90;99.90
22321;DHT22;11328;53.928;18.522;2023-02-28T10:03:59;4.00;99.90
22321;DHT22;11328;53.928;18.522;2023-02-28T10:06:39;4.00;99.90
22321;DHT22;11328;53.928;18.522;2023-02-28T10:09:30;4.10;99.90
22321;DHT22;11328;53.928;18.522;2023-02-28T10:12:04;4.30;99.90
22321;DHT22;11328;53.928;18.522;2023-02-28T10:14:34;4.50;99.90
22321;DHT22;11328;53.928;18.522;2023-02-28T10:17:19;4.70;99.90
22321;DHT22;11328;53.928;18.522;2023-02-28T10:19:54;4.60;99.90
22321;DHT22;11328;53.928;18.522;2023-02-28T10:22:37;4.80;99.90
22321;DHT22;11328;53.928;18.522;2023-02-28T10:25:25;4.90;99.90
22321;DHT22;11328;53.928;18.522;2023-02-28T10:30:45;4.90;99.90
22321;DHT22;11328;53.928;18.522;2023-02-28T10:33:25;4.90;99.90
22321;DHT22;11328;53.928;18.522;2023-02-28T10:36:04;4.80;99.90
22321;DHT22;11328;53.928;18.522;2023-02-28T10:38:34;4.80;99.90
22321;DHT22;11328;53.928;18.522;2023-02-28T10:41:12;4.80;99.90
22321;DHT22;11328;53.928;18.522;2023-02-28T10:43:44;4.80;99.90
22321;DHT22;11328;53.928;18.522;2023-02-28T10:46:18;4.80;99.90
22321;DHT22;11328;53.928;18.522;2023-02-28T10:49:05;4.80;99.90
22321;DHT22;11328;53.928;18.522;2023-02-28T10:51:40;4.80;99.90
22321;DHT22;11328;53.928;18.522;2023-02-28T10:54:22;4.90;99.90
22321;DHT22;11328;53.928;18.522;2023-02-28T10:59:41;4.90;99.90
22321;DHT22;11328;53.928;18.522;2023-02-28T11:02:32;4.90;99.90
22321;DHT22;11328;53.928;18.522;2023-02-28T11:05:31;5.10;99.90
22321;DHT22;11328;53.928;18.522;2023-02-28T11:10:48;5.00;99.90
22321;DHT22;11328;53.928;18.522;2023-02-28T11:13:28;4.90;99.90
22321;DHT22;11328;53.928;18.522;2023-02-28T11:16:04;5.00;99.90
22321;DHT22;11328;53.928;18.522;2023-02-28T11:18:43;5.10;99.90
22321;DHT22;11328;53.928;18.522;2023-02-28T11:26:48;4.80;99.90
22321;DHT22;11328;53.928;18.522;2023-02-28T11:29:20;4.80;99.90
22321;DHT22;11328;53.928;18.522;2023-02-28T11:34:38;4.90;99.90
22321;DHT22;11328;53.928;18.522;2023-02-28T11:37:15;4.80;99.90
22321;DHT22;11328;53.928;18.522;2023-02-28T11:39:45;4.80;99.90
22321;DHT22;11328;53.928;18.522;2023-02-28T11:50:44;4.90;99.90
22321;DHT22;11328;53.928;18.522;2023-02-28T11:56:32;5.00;99.90
22321;DHT22;11328;53.928;18.522;2023-02-28T12:02:20;5.20;99.90
22321;DHT22;11328;53.928;18.522;2023-02-28T12:10:53;5.20;99.90
22321;DHT22;11328;53.928;18.522;2023-02-28T12:13:26;5.10;99.90
22321;DHT22;11328;53.928;18.522;2023-02-28T12:16:11;5.20;99.90
22321;DHT22;11328;53.928;18.522;2023-02-28T12:22:12;5.30;99.90
22321;DHT22;11328;53.928;18.522;2023-02-28T12:27:53;5.40;99.90
22321;DHT22;11328;53.928;18.522;2023-02-28T12:30:24;5.50;99.90
22321;DHT22;11328;53.928;18.522;2023-02-28T12:33:03;5.70;99.90
22321;DHT22;11328;53.928;18.522;2023-02-28T12:35:58;5.60;99.90
22321;DHT22;11328;53.928;18.522;2023-02-28T12:38:41;5.60;99.90
22321;DHT22;11328;53.928;18.522;2023-02-28T12:41:18;5.60;99.90
22321;DHT22;11328;53.928;18.522;2023-02-28T12:43:52;5.70;99.90
22321;DHT22;11328;53.928;18.522;2023-02-28T12:46:35;5.60;99.90
22321;DHT22;11328;53.928;18.522;2023-02-28T12:49:15;5.70;99.90
22321;DHT22;11328;53.928;18.522;2023-02-28T12:51:47;5.80;99.90
22321;DHT22;11328;53.928;18.522;2023-02-28T12:54:21;5.90;99.90
22321;DHT22;11328;53.928;18.522;2023-02-28T12:57:08;5.90;99.90
22321;DHT22;11328;53.928;18.522;2023-02-28T12:59:57;6.00;99.90
22321;DHT22;11328;53.928;18.522;2023-02-28T13:10:57;6.00;99.90
22321;DHT22;11328;53.928;18.522;2023-02-28T13:13:29;6.00;99.90
22321;DHT22;11328;53.928;18.522;2023-02-28T13:15:58;6.00;99.90
22321;DHT22;11328;53.928;18.522;2023-02-28T13:18:46;6.00;99.90
22321;DHT22;11328;53.928;18.522;2023-02-28T13:21:27;6.00;99.90
22321;DHT22;11328;53.928;18.522;2023-02-28T13:23:59;6.10;99.90
22321;DHT22;11328;53.928;18.522;2023-02-28T13:29:36;6.20;99.60
22321;DHT22;11328;53.928;18.522;2023-02-28T13:34:36;6.30;99.90
22321;DHT22;11328;53.928;18.522;2023-02-28T13:40:40;6.30;99.90
22321;DHT22;11328;53.928;18.522;2023-02-28T13:43:08;6.30;99.40
22321;DHT22;11328;53.928;18.522;2023-02-28T13:45:35;6.50;99.90
22321;DHT22;11328;53.928;18.522;2023-02-28T13:48:17;6.50;99.60
22321;DHT22;11328;53.928;18.522;2023-02-28T13:50:46;6.50;98.90
22321;DHT22;11328;53.928;18.522;2023-02-28T14:02:09;6.50;97.90
22321;DHT22;11328;53.928;18.522;2023-02-28T14:07:58;6.50;97.60
22321;DHT22;11328;53.928;18.522;2023-02-28T14:10:41;6.50;97.30
22321;DHT22;11328;53.928;18.522;2023-02-28T14:13:48;6.50;98.10
22321;DHT22;11328;53.928;18.522;2023-02-28T14:16:21;6.50;96.80
22321;DHT22;11328;53.928;18.522;2023-02-28T14:19:25;6.40;97.30
22321;DHT22;11328;53.928;18.522;2023-02-28T14:22:02;6.30;97.60
22321;DHT22;11328;53.928;18.522;2023-02-28T14:33:22;6.30;97.60
22321;DHT22;11328;53.928;18.522;2023-02-28T14:38:49;6.20;97.70
22321;DHT22;11328;53.928;18.522;2023-02-28T14:41:27;6.40;98.90
22321;DHT22;11328;53.928;18.522;2023-02-28T14:44:26;6.50;98.30
22321;DHT22;11328;53.928;18.522;2023-02-28T14:47:01;6.50;98.10
22321;DHT22;11328;53.928;18.522;2023-02-28T14:49:44;6.30;97.40
22321;DHT22;11328;53.928;18.522;2023-02-28T14:52:43;6.20;96.70
22321;DHT22;11328;53.928;18.522;2023-02-28T14:55:15;6.30;97.40
22321;DHT22;11328;53.928;18.522;2023-02-28T15:00:50;6.30;97.00
22321;DHT22;11328;53.928;18.522;2023-02-28T15:06:00;6.40;97.00
22321;DHT22;11328;53.928;18.522;2023-02-28T15:08:30;6.40;96.90
22321;DHT22;11328;53.928;18.522;2023-02-28T15:11:06;6.40;96.70
22321;DHT22;11328;53.928;18.522;2023-02-28T15:13:47;6.50;96.70
22321;DHT22;11328;53.928;18.522;2023-02-28T15:16:17;6.50;95.90
22321;DHT22;11328;53.928;18.522;2023-02-28T15:18:54;6.50;96.20
22321;DHT22;11328;53.928;18.522;2023-02-28T15:21:30;6.40;95.80
22321;DHT22;11328;53.928;18.522;2023-02-28T15:24:06;6.30;95.80
22321;DHT22;11328;53.928;18.522;2023-02-28T15:26:43;6.30;95.40
22321;DHT22;11328;53.928;18.522;2023-02-28T15:29:16;6.30;94.80
22321;DHT22;11328;53.928;18.522;2023-02-28T15:31:49;6.20;94.70
22321;DHT22;11328;53.928;18.522;2023-02-28T15:34:36;6.10;95.40
22321;DHT22;11328;53.928;18.522;2023-02-28T15:37:52;6.10;95.50
22321;DHT22;11328;53.928;18.522;2023-02-28T15:43:37;6.00;96.10
22321;DHT22;11328;53.928;18.522;2023-02-28T15:46:09;5.90;96.50
22321;DHT22;11328;53.928;18.522;2023-02-28T15:48:54;5.90;96.50
22321;DHT22;11328;53.928;18.522;2023-02-28T15:51:34;5.90;96.80
22321;DHT22;11328;53.928;18.522;2023-02-28T15:54:07;5.90;96.50
22321;DHT22;11328;53.928;18.522;2023-02-28T15:56:43;5.80;96.80
22321;DHT22;11328;53.928;18.522;2023-02-28T15:59:18;5.70;97.20
22321;DHT22;11328;53.928;18.522;2023-02-28T16:05:19;5.60;97.80
22321;DHT22;11328;53.928;18.522;2023-02-28T16:08:13;5.60;97.20
22321;DHT22;11328;53.928;18.522;2023-02-28T16:10:41;5.50;97.80
22321;DHT22;11328;53.928;18.522;2023-02-28T16:13:11;5.40;97.70
22321;DHT22;11328;53.928;18.522;2023-02-28T16:15:43;5.30;97.60
22321;DHT22;11328;53.928;18.522;2023-02-28T16:18:12;5.30;98.40
22321;DHT22;11328;53.928;18.522;2023-02-28T16:20:39;5.30;98.10
22321;DHT22;11328;53.928;18.522;2023-02-28T16:23:07;5.10;97.80
22321;DHT22;11328;53.928;18.522;2023-02-28T16:25:40;5.10;98.50
22321;DHT22;11328;53.928;18.522;2023-02-28T16:28:19;5.00;98.80
22321;DHT22;11328;53.928;18.522;2023-02-28T16:30:53;4.90;98.50
22321;DHT22;11328;53.928;18.522;2023-02-28T16:33:21;4.80;98.40
22321;DHT22;11328;53.928;18.522;2023-02-28T16:35:49;4.60;98.20
22321;DHT22;11328;53.928;18.522;2023-02-28T16:38:16;4.60;99.30
22321;DHT22;11328;53.928;18.522;2023-02-28T16:40:45;4.40;99.30
22321;DHT22;11328;53.928;18.522;2023-02-28T16:43:18;4.40;99.50
22321;DHT22;11328;53.928;18.522;2023-02-28T16:45:49;4.30;98.70
22321;DHT22;11328;53.928;18.522;2023-02-28T16:48:22;4.20;98.60
22321;DHT22;11328;53.928;18.522;2023-02-28T16:50:49;4.10;99.60
22321;DHT22;11328;53.928;18.522;2023-02-28T16:53:16;4.10;99.90
22321;DHT22;11328;53.928;18.522;2023-02-28T16:55:44;4.10;99.90
22321;DHT22;11328;53.928;18.522;2023-02-28T16:58:15;4.00;99.90
22321;DHT22;11328;53.928;18.522;2023-02-28T17:00:43;4.00;99.90
22321;DHT22;11328;53.928;18.522;2023-02-28T17:03:26;3.90;99.90
22321;DHT22;11328;53.928;18.522;2023-02-28T17:06:00;4.00;99.90
22321;DHT22;11328;53.928;18.522;2023-02-28T17:08:28;3.90;99.90
22321;DHT22;11328;53.928;18.522;2023-02-28T17:10:56;3.90;99.90
22321;DHT22;11328;53.928;18.522;2023-02-28T17:13:23;3.80;99.90
22321;DHT22;11328;53.928;18.522;2023-02-28T17:15:51;3.90;99.90
22321;DHT22;11328;53.928;18.522;2023-02-28T17:18:18;3.80;99.90
22321;DHT22;11328;53.928;18.522;2023-02-28T17:20:48;3.80;99.90
22321;DHT22;11328;53.928;18.522;2023-02-28T17:23:15;3.80;99.90
22321;DHT22;11328;53.928;18.522;2023-02-28T17:25:43;3.70;99.90
22321;DHT22;11328;53.928;18.522;2023-02-28T17:28:23;3.50;99.90
22321;DHT22;11328;53.928;18.522;2023-02-28T17:30:50;3.40;99.90
22321;DHT22;11328;53.928;18.522;2023-02-28T17:33:18;3.40;99.90
22321;DHT22;11328;53.928;18.522;2023-02-28T17:35:48;3.30;99.60
22321;DHT22;11328;53.928;18.522;2023-02-28T17:38:17;3.20;99.20
22321;DHT22;11328;53.928;18.522;2023-02-28T17:40:46;3.20;99.50
22321;DHT22;11328;53.928;18.522;2023-02-28T17:43:13;3.20;99.90
22321;DHT22;11328;53.928;18.522;2023-02-28T17:45:42;3.10;99.60
22321;DHT22;11328;53.928;18.522;2023-02-28T17:48:11;3.00;99.50
22321;DHT22;11328;53.928;18.522;2023-02-28T17:50:39;3.00;99.70
22321;DHT22;11328;53.928;18.522;2023-02-28T17:53:07;3.00;99.80
22321;DHT22;11328;53.928;18.522;2023-02-28T17:55:35;3.00;99.50
22321;DHT22;11328;53.928;18.522;2023-02-28T17:58:03;2.90;99.30
22321;DHT22;11328;53.928;18.522;2023-02-28T18:00:31;2.80;99.10
22321;DHT22;11328;53.928;18.522;2023-02-28T18:03:00;2.70;99.00
22321;DHT22;11328;53.928;18.522;2023-02-28T18:05:28;2.70;99.00
22321;DHT22;11328;53.928;18.522;2023-02-28T18:07:56;2.60;99.00
22321;DHT22;11328;53.928;18.522;2023-02-28T18:10:23;2.60;99.30
22321;DHT22;11328;53.928;18.522;2023-02-28T18:12:51;2.60;99.80
22321;DHT22;11328;53.928;18.522;2023-02-28T18:15:20;2.50;99.60
22321;DHT22;11328;53.928;18.522;2023-02-28T18:17:48;2.40;99.70